sensor_id;sensor_type;location;lat;lon;timestamp;pressure;altitude;pressure_sealevel;temperature;humidity
28606;BME280;46498;49.968;7.754;2023-08-06T00:00:24;-18696.00;;;13.14;100.00
28606;BME280;46498;49.968;7.754;2023-08-06T00:05:25;-18699.00;;;13.21;100.00
28606;BME280;46498;49.968;7.754;2023-08-06T00:10:26;-18701.00;;;13.30;100.00
28606;BME280;46498;49.968;7.754;2023-08-06T00:15:27;-18703.00;;;13.35;100.00
28606;BME280;46498;49.968;7.754;2023-08-06T00:20:28;-18701.00;;;13.28;100.00
28606;BME280;46498;49.968;7.754;2023-08-06T00:25:29;-18702.00;;;13.33;100.00
28606;BME280;46498;49.968;7.754;2023-08-06T00:30:31;-18704.00;;;13.39;100.00
28606;BME280;46498;49.968;7.754;2023-08-06T00:35:32;-18701.00;;;13.30;100.00
28606;BME280;46498;49.968;7.754;2023-08-06T00:40:32;-18702.00;;;13.32;100.00
28606;BME280;46498;49.968;7.754;2023-08-06T00:45:35;-18695.00;;;13.09;100.00
28606;BME280;46498;49.968;7.754;2023-08-06T00:50:36;-18692.00;;;13.01;100.00
28606;BME280;46498;49.968;7.754;2023-08-06T00:55:37;-18694.00;;;13.08;100.00
28606;BME280;46498;49.968;7.754;2023-08-06T01:00:38;-18694.00;;;13.06;100.00
28606;BME280;46498;49.968;7.754;2023-08-06T01:05:40;-18695.00;;;13.10;100.00
28606;BME280;46498;49.968;7.754;2023-08-06T01:16:20;-18693.00;;;13.03;100.00
28606;BME280;46498;49.968;7.754;2023-08-06T01:21:21;-18691.00;;;12.98;100.00
28606;BME280;46498;49.968;7.754;2023-08-06T01:26:33;-18691.00;;;12.96;100.00
28606;BME280;46498;49.968;7.754;2023-08-06T01:31:37;-18689.00;;;12.91;100.00
28606;BME280;46498;49.968;7.754;2023-08-06T01:36:40;-18691.00;;;12.96;100.00
28606;BME280;46498;49.968;7.754;2023-08-06T01:41:41;-18690.00;;;12.95;100.00
28606;BME280;46498;49.968;7.754;2023-08-06T01:46:42;-18690.00;;;12.93;100.00
28606;BME280;46498;49.968;7.754;2023-08-06T01:51:43;-18690.00;;;12.93;100.00
28606;BME280;46498;49.968;7.754;2023-08-06T01:56:44;-18689.00;;;12.92;100.00
28606;BME280;46498;49.968;7.754;2023-08-06T02:01:45;-18692.00;;;13.01;100.00
28606;BME280;46498;49.968;7.754;2023-08-06T02:06:46;-18692.00;;;13.00;100.00
28606;BME280;46498;49.968;7.754;2023-08-06T02:11:47;-18690.00;;;12.94;100.00
28606;BME280;46498;49.968;7.754;2023-08-06T02:16:47;-18690.00;;;12.95;100.00
28606;BME280;46498;49.968;7.754;2023-08-06T02:21:50;-18687.00;;;12.85;100.00
28606;BME280;46498;49.968;7.754;2023-08-06T02:26:51;-18685.00;;;12.78;100.00
28606;BME280;46498;49.968;7.754;2023-08-06T02:31:56;-18684.00;;;12.76;100.00
28606;BME280;46498;49.968;7.754;2023-08-06T02:36:57;-18686.00;;;12.82;100.00
28606;BME280;46498;49.968;7.754;2023-08-06T02:41:58;-18685.00;;;12.77;100.00
28606;BME280;46498;49.968;7.754;2023-08-06T02:47:00;-18689.00;;;12.92;100.00
28606;BME280;46498;49.968;7.754;2023-08-06T02:52:01;-18687.00;;;12.84;100.00
28606;BME280;46498;49.968;7.754;2023-08-06T02:57:03;-18689.00;;;12.90;100.00
28606;BME280;46498;49.968;7.754;2023-08-06T03:02:06;-18689.00;;;12.90;100.00
28606;BME280;46498;49.968;7.754;2023-08-06T03:07:16;-18682.00;;;12.70;100.00
28606;BME280;46498;49.968;7.754;2023-08-06T03:12:24;-18681.00;;;12.65;100.00
28606;BME280;46498;49.968;7.754;2023-08-06T03:17:25;-18681.00;;;12.65;100.00
28606;BME280;46498;49.968;7.754;2023-08-06T03:22:27;-18684.00;;;12.76;100.00
28606;BME280;46498;49.968;7.754;2023-08-06T03:27:28;-18683.00;;;12.71;100.00
28606;BME280;46498;49.968;7.754;2023-08-06T03:32:30;-18675.00;;;12.48;100.00
28606;BME280;46498;49.968;7.754;2023-08-06T03:37:32;-18677.00;;;12.53;100.00
28606;BME280;46498;49.968;7.754;2023-08-06T03:42:33;-18681.00;;;12.66;100.00
28606;BME280;46498;49.968;7.754;2023-08-06T03:47:34;-18678.00;;;12.58;100.00
28606;BME280;46498;49.968;7.754;2023-08-06T03:52:36;-18677.00;;;12.53;100.00
28606;BME280;46498;49.968;7.754;2023-08-06T03:57:37;-18676.00;;;12.50;100.00
28606;BME280;46498;49.968;7.754;2023-08-06T04:02:38;-18684.00;;;12.75;100.00
28606;BME280;46498;49.968;7.754;2023-08-06T04:07:39;-18681.00;;;12.66;100.00
28606;BME280;46498;49.968;7.754;2023-08-06T04:12:40;-18677.00;;;12.53;100.00
28606;BME280;46498;49.968;7.754;2023-08-06T04:17:41;-18677.00;;;12.53;100.00
28606;BME280;46498;49.968;7.754;2023-08-06T04:22:42;-18673.00;;;12.40;100.00
28606;BME280;46498;49.968;7.754;2023-08-06T04:27:42;-18674.00;;;12.45;100.00
28606;BME280;46498;49.968;7.754;2023-08-06T04:32:44;-18670.00;;;12.31;100.00
28606;BME280;46498;49.968;7.754;2023-08-06T04:37:45;-18672.00;;;12.37;100.00
28606;BME280;46498;49.968;7.754;2023-08-06T04:42:46;-18670.00;;;12.31;100.00
28606;BME280;46498;49.968;7.754;2023-08-06T04:47:47;-18672.00;;;12.38;100.00
28606;BME280;46498;49.968;7.754;2023-08-06T04:52:48;-18669.00;;;12.30;100.00
28606;BME280;46498;49.968;7.754;2023-08-06T04:57:49;-18671.00;;;12.34;100.00
28606;BME280;46498;49.968;7.754;2023-08-06T05:02:50;-18671.00;;;12.35;100.00
28606;BME280;46498;49.968;7.754;2023-08-06T05:07:51;-18668.00;;;12.26;100.00
28606;BME280;46498;49.968;7.754;2023-08-06T05:12:52;-18671.00;;;12.33;100.00
28606;BME280;46498;49.968;7.754;2023-08-06T05:17:53;-18672.00;;;12.37;100.00
28606;BME280;46498;49.968;7.754;2023-08-06T05:22:54;-18670.00;;;12.32;100.00
28606;BME280;46498;49.968;7.754;2023-08-06T05:27:55;-18671.00;;;12.34;100.00
28606;BME280;46498;49.968;7.754;2023-08-06T05:32:56;-18672.00;;;12.38;100.00
28606;BME280;46498;49.968;7.754;2023-08-06T05:37:57;-18670.00;;;12.32;100.00
28606;BME280;46498;49.968;7.754;2023-08-06T05:42:58;-18671.00;;;12.36;100.00
28606;BME280;46498;49.968;7.754;2023-08-06T05:47:59;-18673.00;;;12.40;100.00
28606;BME280;46498;49.968;7.754;2023-08-06T05:53:00;-18673.00;;;12.42;100.00
28606;BME280;46498;49.968;7.754;2023-08-06T05:58:02;-18677.00;;;12.52;100.00
28606;BME280;46498;49.968;7.754;2023-08-06T06:03:03;-18676.00;;;12.49;100.00
28606;BME280;46498;49.968;7.754;2023-08-06T06:08:04;-18682.00;;;12.68;100.00
28606;BME280;46498;49.968;7.754;2023-08-06T06:13:05;-18682.00;;;12.68;100.00
28606;BME280;46498;49.968;7.754;2023-08-06T06:18:10;-18682.00;;;12.69;100.00
28606;BME280;46498;49.968;7.754;2023-08-06T06:23:11;-18686.00;;;12.80;100.00
28606;BME280;46498;49.968;7.754;2023-08-06T06:28:12;-18682.00;;;12.70;100.00
28606;BME280;46498;49.968;7.754;2023-08-06T06:33:13;-18685.00;;;12.78;100.00
28606;BME280;46498;49.968;7.754;2023-08-06T06:38:13;-18688.00;;;12.89;100.00
28606;BME280;46498;49.968;7.754;2023-08-06T06:43:14;-18687.00;;;12.84;100.00
28606;BME280;46498;49.968;7.754;2023-08-06T06:48:15;-18692.00;;;13.00;100.00
28606;BME280;46498;49.968;7.754;2023-08-06T06:53:16;-18690.00;;;12.95;100.00
28606;BME280;46498;49.968;7.754;2023-08-06T06:58:17;-18693.00;;;13.03;100.00
28606;BME280;46498;49.968;7.754;2023-08-06T07:03:20;-18693.00;;;13.02;100.00
28606;BME280;46498;49.968;7.754;2023-08-06T07:08:21;-18695.00;;;13.09;100.00
28606;BME280;46498;49.968;7.754;2023-08-06T07:13:22;-18693.00;;;13.05;100.00
28606;BME280;46498;49.968;7.754;2023-08-06T07:18:23;-18694.00;;;13.07;100.00
28606;BME280;46498;49.968;7.754;2023-08-06T07:23:25;-18701.00;;;13.30;100.00
28606;BME280;46498;49.968;7.754;2023-08-06T07:28:26;-18705.00;;;13.41;100.00
28606;BME280;46498;49.968;7.754;2023-08-06T07:33:27;-18715.00;;;13.72;100.00
28606;BME280;46498;49.968;7.754;2023-08-06T07:38:29;-18729.00;;;14.16;100.00
28606;BME280;46498;49.968;7.754;2023-08-06T07:43:30;-18733.00;;;14.28;100.00
28606;BME280;46498;49.968;7.754;2023-08-06T07:48:31;-18728.00;;;14.12;100.00
28606;BME280;46498;49.968;7.754;2023-08-06T07:53:32;-18721.00;;;13.91;100.00
28606;BME280;46498;49.968;7.754;2023-08-06T07:58:34;-18719.00;;;13.85;100.00
28606;BME280;46498;49.968;7.754;2023-08-06T08:03:35;-18729.00;;;14.15;100.00
28606;BME280;46498;49.968;7.754;2023-08-06T08:08:36;-18731.00;;;14.23;100.00
28606;BME280;46498;49.968;7.754;2023-08-06T08:13:39;-18728.00;;;14.15;100.00
28606;BME280;46498;49.968;7.754;2023-08-06T08:18:40;-18726.00;;;14.08;100.00
28606;BME280;46498;49.968;7.754;2023-08-06T08:23:41;-18724.00;;;14.01;100.00
28606;BME280;46498;49.968;7.754;2023-08-06T08:28:42;-18718.00;;;13.81;100.00
28606;BME280;46498;49.968;7.754;2023-08-06T08:33:44;-18708.00;;;13.52;100.00
28606;BME280;46498;49.968;7.754;2023-08-06T08:38:44;-18710.00;;;13.56;100.00
28606;BME280;46498;49.968;7.754;2023-08-06T08:43:48;-18709.00;;;13.54;100.00
28606;BME280;46498;49.968;7.754;2023-08-06T08:48:50;-18707.00;;;13.48;100.00
28606;BME280;46498;49.968;7.754;2023-08-06T08:53:53;-18703.00;;;13.34;100.00
28606;BME280;46498;49.968;7.754;2023-08-06T08:58:57;-18708.00;;;13.50;100.00
28606;BME280;46498;49.968;7.754;2023-08-06T09:03:58;-18705.00;;;13.42;100.00
28606;BME280;46498;49.968;7.754;2023-08-06T09:09:06;-18706.00;;;13.43;100.00
28606;BME280;46498;49.968;7.754;2023-08-06T09:14:08;-18710.00;;;13.57;100.00
28606;BME280;46498;49.968;7.754;2023-08-06T09:19:10;-18710.00;;;13.57;100.00
28606;BME280;46498;49.968;7.754;2023-08-06T09:24:12;-18712.00;;;13.64;100.00
28606;BME280;46498;49.968;7.754;2023-08-06T09:29:13;-18712.00;;;13.63;100.00
28606;BME280;46498;49.968;7.754;2023-08-06T09:34:20;-18716.00;;;13.76;100.00
28606;BME280;46498;49.968;7.754;2023-08-06T09:39:28;-18718.00;;;13.83;100.00
28606;BME280;46498;49.968;7.754;2023-08-06T09:44:31;-18721.00;;;13.93;100.00
28606;BME280;46498;49.968;7.754;2023-08-06T09:49:42;-18723.00;;;13.99;100.00
28606;BME280;46498;49.968;7.754;2023-08-06T09:54:44;-18722.00;;;13.95;100.00
28606;BME280;46498;49.968;7.754;2023-08-06T09:59:45;-18721.00;;;13.92;100.00
28606;BME280;46498;49.968;7.754;2023-08-06T10:04:48;-18724.00;;;14.00;100.00
28606;BME280;46498;49.968;7.754;2023-08-06T10:09:56;-18728.00;;;14.12;100.00
28606;BME280;46498;49.968;7.754;2023-08-06T10:14:59;-18721.00;;;13.92;100.00
28606;BME280;46498;49.968;7.754;2023-08-06T10:20:04;-18720.00;;;13.89;100.00
28606;BME280;46498;49.968;7.754;2023-08-06T10:25:07;-18724.00;;;14.00;100.00
28606;BME280;46498;49.968;7.754;2023-08-06T10:36:49;-18727.00;;;14.09;100.00
28606;BME280;46498;49.968;7.754;2023-08-06T10:41:50;-18718.00;;;13.82;100.00
28606;BME280;46498;49.968;7.754;2023-08-06T10:46:51;-18718.00;;;13.82;100.00
28606;BME280;46498;49.968;7.754;2023-08-06T10:51:52;-18710.00;;;13.57;100.00
28606;BME280;46498;49.968;7.754;2023-08-06T10:56:54;-18715.00;;;13.71;100.00
28606;BME280;46498;49.968;7.754;2023-08-06T11:01:56;-18715.00;;;13.72;100.00
28606;BME280;46498;49.968;7.754;2023-08-06T11:06:57;-18715.00;;;13.72;100.00
28606;BME280;46498;49.968;7.754;2023-08-06T11:11:58;-18712.00;;;13.64;100.00
28606;BME280;46498;49.968;7.754;2023-08-06T11:16:59;-18708.00;;;13.51;100.00
28606;BME280;46498;49.968;7.754;2023-08-06T11:22:00;-18705.00;;;13.42;100.00
28606;BME280;46498;49.968;7.754;2023-08-06T11:27:02;-18705.00;;;13.42;100.00
28606;BME280;46498;49.968;7.754;2023-08-06T11:32:11;-18701.00;;;13.30;100.00
28606;BME280;46498;49.968;7.754;2023-08-06T11:37:14;-18696.00;;;13.11;100.00
28606;BME280;46498;49.968;7.754;2023-08-06T11:42:15;-18688.00;;;12.88;100.00
28606;BME280;46498;49.968;7.754;2023-08-06T11:47:17;-18685.00;;;12.79;100.00
28606;BME280;46498;49.968;7.754;2023-08-06T11:52:23;-18688.00;;;12.88;100.00
28606;BME280;46498;49.968;7.754;2023-08-06T11:57:24;-18696.00;;;13.13;100.00
28606;BME280;46498;49.968;7.754;2023-08-06T12:02:25;-18696.00;;;13.14;100.00
28606;BME280;46498;49.968;7.754;2023-08-06T12:07:29;-18691.00;;;12.96;100.00
28606;BME280;46498;49.968;7.754;2023-08-06T12:12:31;-18693.00;;;13.04;100.00
28606;BME280;46498;49.968;7.754;2023-08-06T12:17:32;-18693.00;;;13.04;100.00
28606;BME280;46498;49.968;7.754;2023-08-06T12:22:34;-18699.00;;;13.22;100.00
28606;BME280;46498;49.968;7.754;2023-08-06T12:27:42;-18698.00;;;13.18;100.00
28606;BME280;46498;49.968;7.754;2023-08-06T12:32:43;-18699.00;;;13.22;100.00
28606;BME280;46498;49.968;7.754;2023-08-06T12:37:44;-18707.00;;;13.46;100.00
28606;BME280;46498;49.968;7.754;2023-08-06T12:42:52;-18719.00;;;13.86;100.00
28606;BME280;46498;49.968;7.754;2023-08-06T12:47:53;-18728.00;;;14.14;100.00
28606;BME280;46498;49.968;7.754;2023-08-06T12:52:54;-18713.00;;;13.66;100.00
28606;BME280;46498;49.968;7.754;2023-08-06T12:57:55;-18704.00;;;13.37;100.00
28606;BME280;46498;49.968;7.754;2023-08-06T13:02:59;-18692.00;;;13.01;100.00
28606;BME280;46498;49.968;7.754;2023-08-06T13:08:01;-18689.00;;;12.91;100.00
28606;BME280;46498;49.968;7.754;2023-08-06T13:13:02;-18685.00;;;12.77;100.00
28606;BME280;46498;49.968;7.754;2023-08-06T13:18:03;-18678.00;;;12.58;100.00
28606;BME280;46498;49.968;7.754;2023-08-06T13:23:03;-18675.00;;;12.48;100.00
28606;BME280;46498;49.968;7.754;2023-08-06T13:28:04;-18675.00;;;12.47;100.00
28606;BME280;46498;49.968;7.754;2023-08-06T13:33:05;-18679.00;;;12.60;100.00
28606;BME280;46498;49.968;7.754;2023-08-06T13:38:07;-18686.00;;;12.80;100.00
28606;BME280;46498;49.968;7.754;2023-08-06T13:43:08;-18685.00;;;12.79;100.00
28606;BME280;46498;49.968;7.754;2023-08-06T13:48:09;-18687.00;;;12.84;100.00
28606;BME280;46498;49.968;7.754;2023-08-06T13:53:11;-18686.00;;;12.82;100.00
28606;BME280;46498;49.968;7.754;2023-08-06T13:58:11;-18686.00;;;12.80;100.00
28606;BME280;46498;49.968;7.754;2023-08-06T14:03:12;-18686.00;;;12.81;100.00
28606;BME280;46498;49.968;7.754;2023-08-06T14:08:14;-18686.00;;;12.83;100.00
28606;BME280;46498;49.968;7.754;2023-08-06T14:13:15;-18687.00;;;12.85;100.00
28606;BME280;46498;49.968;7.754;2023-08-06T14:18:16;-18691.00;;;12.97;100.00
28606;BME280;46498;49.968;7.754;2023-08-06T14:23:17;-18691.00;;;12.96;100.00
28606;BME280;46498;49.968;7.754;2023-08-06T14:28:18;-18686.00;;;12.80;100.00
28606;BME280;46498;49.968;7.754;2023-08-06T14:33:19;-18686.00;;;12.80;100.00
28606;BME280;46498;49.968;7.754;2023-08-06T14:38:28;-18682.00;;;12.69;100.00
28606;BME280;46498;49.968;7.754;2023-08-06T14:43:29;-18678.00;;;12.58;100.00
28606;BME280;46498;49.968;7.754;2023-08-06T14:48:30;-18678.00;;;12.57;100.00
28606;BME280;46498;49.968;7.754;2023-08-06T14:53:31;-18677.00;;;12.52;100.00
28606;BME280;46498;49.968;7.754;2023-08-06T14:58:32;-18675.00;;;12.48;100.00
28606;BME280;46498;49.968;7.754;2023-08-06T15:03:33;-18676.00;;;12.50;100.00
28606;BME280;46498;49.968;7.754;2023-08-06T15:08:35;-18681.00;;;12.67;100.00
28606;BME280;46498;49.968;7.754;2023-08-06T15:13:36;-18680.00;;;12.63;100.00
28606;BME280;46498;49.968;7.754;2023-08-06T15:18:37;-18676.00;;;12.51;100.00
28606;BME280;46498;49.968;7.754;2023-08-06T15:23:38;-18675.00;;;12.48;100.00
28606;BME280;46498;49.968;7.754;2023-08-06T15:28:39;-18675.00;;;12.48;100.00
28606;BME280;46498;49.968;7.754;2023-08-06T15:33:40;-18676.00;;;12.49;100.00
28606;BME280;46498;49.968;7.754;2023-08-06T15:38:41;-18678.00;;;12.58;100.00
28606;BME280;46498;49.968;7.754;2023-08-06T15:43:41;-18674.00;;;12.44;100.00
28606;BME280;46498;49.968;7.754;2023-08-06T15:48:43;-18676.00;;;12.51;100.00
28606;BME280;46498;49.968;7.754;2023-08-06T15:53:44;-18674.00;;;12.44;100.00
28606;BME280;46498;49.968;7.754;2023-08-06T15:58:45;-18672.00;;;12.36;100.00
28606;BME280;46498;49.968;7.754;2023-08-06T16:03:46;-18670.00;;;12.31;100.00
28606;BME280;46498;49.968;7.754;2023-08-06T16:08:48;-18672.00;;;12.37;100.00
28606;BME280;46498;49.968;7.754;2023-08-06T16:13:49;-18673.00;;;12.40;100.00
28606;BME280;46498;49.968;7.754;2023-08-06T16:18:50;-18676.00;;;12.50;100.00
28606;BME280;46498;49.968;7.754;2023-08-06T16:23:51;-18676.00;;;12.49;100.00
28606;BME280;46498;49.968;7.754;2023-08-06T16:28:51;-18676.00;;;12.51;100.00
28606;BME280;46498;49.968;7.754;2023-08-06T16:33:52;-18671.00;;;12.34;100.00
28606;BME280;46498;49.968;7.754;2023-08-06T16:38:53;-18666.00;;;12.20;100.00
28606;BME280;46498;49.968;7.754;2023-08-06T16:43:54;-18664.00;;;12.11;100.00
28606;BME280;46498;49.968;7.754;2023-08-06T16:48:55;-18666.00;;;12.19;100.00
28606;BME280;46498;49.968;7.754;2023-08-06T16:53:56;-18669.00;;;12.28;100.00
28606;BME280;46498;49.968;7.754;2023-08-06T16:58:57;-18669.00;;;12.28;100.00
28606;BME280;46498;49.968;7.754;2023-08-06T17:03:58;-18665.00;;;12.16;100.00
28606;BME280;46498;49.968;7.754;2023-08-06T17:08:59;-18661.00;;;12.04;100.00
28606;BME280;46498;49.968;7.754;2023-08-06T17:14:02;-18660.00;;;12.00;100.00
28606;BME280;46498;49.968;7.754;2023-08-06T17:19:03;-18660.00;;;12.00;100.00
28606;BME280;46498;49.968;7.754;2023-08-06T17:24:04;-18660.00;;;11.99;100.00
28606;BME280;46498;49.968;7.754;2023-08-06T17:29:05;-18654.00;;;11.81;100.00
28606;BME280;46498;49.968;7.754;2023-08-06T17:34:06;-18651.00;;;11.71;100.00
28606;BME280;46498;49.968;7.754;2023-08-06T17:39:07;-18649.00;;;11.66;100.00
28606;BME280;46498;49.968;7.754;2023-08-06T17:44:08;-18646.00;;;11.55;100.00
28606;BME280;46498;49.968;7.754;2023-08-06T17:49:09;-18647.00;;;11.58;100.00
28606;BME280;46498;49.968;7.754;2023-08-06T17:54:10;-18647.00;;;11.59;100.00
28606;BME280;46498;49.968;7.754;2023-08-06T17:59:11;-18648.00;;;11.61;100.00
28606;BME280;46498;49.968;7.754;2023-08-06T18:04:12;-18646.00;;;11.56;100.00
28606;BME280;46498;49.968;7.754;2023-08-06T18:09:13;-18645.00;;;11.52;100.00
28606;BME280;46498;49.968;7.754;2023-08-06T18:14:14;-18644.00;;;11.51;100.00
28606;BME280;46498;49.968;7.754;2023-08-06T18:19:15;-18642.00;;;11.43;100.00
28606;BME280;46498;49.968;7.754;2023-08-06T18:24:16;-18640.00;;;11.37;100.00
28606;BME280;46498;49.968;7.754;2023-08-06T18:29:16;-18639.00;;;11.32;100.00
28606;BME280;46498;49.968;7.754;2023-08-06T18:34:18;-18638.00;;;11.30;100.00
28606;BME280;46498;49.968;7.754;2023-08-06T18:39:18;-18635.00;;;11.22;100.00
28606;BME280;46498;49.968;7.754;2023-08-06T18:44:20;-18632.00;;;11.13;100.00
28606;BME280;46498;49.968;7.754;2023-08-06T18:49:20;-18632.00;;;11.13;100.00
28606;BME280;46498;49.968;7.754;2023-08-06T18:54:22;-18629.00;;;11.03;100.00
28606;BME280;46498;49.968;7.754;2023-08-06T18:59:23;-18627.00;;;10.97;100.00
28606;BME280;46498;49.968;7.754;2023-08-06T19:04:25;-18627.00;;;10.96;100.00
28606;BME280;46498;49.968;7.754;2023-08-06T19:09:26;-18629.00;;;11.02;100.00
28606;BME280;46498;49.968;7.754;2023-08-06T19:14:30;-18626.00;;;10.93;100.00
28606;BME280;46498;49.968;7.754;2023-08-06T19:19:30;-18624.00;;;10.86;100.00
28606;BME280;46498;49.968;7.754;2023-08-06T19:24:32;-18623.00;;;10.83;100.00
28606;BME280;46498;49.968;7.754;2023-08-06T19:29:32;-18623.00;;;10.82;100.00
28606;BME280;46498;49.968;7.754;2023-08-06T19:34:34;-18626.00;;;10.92;100.00
28606;BME280;46498;49.968;7.754;2023-08-06T19:39:35;-18623.00;;;10.83;100.00
28606;BME280;46498;49.968;7.754;2023-08-06T19:44:36;-18622.00;;;10.80;100.00
28606;BME280;46498;49.968;7.754;2023-08-06T19:49:37;-18623.00;;;10.82;100.00
28606;BME280;46498;49.968;7.754;2023-08-06T19:54:44;-18622.00;;;10.80;100.00
28606;BME280;46498;49.968;7.754;2023-08-06T19:59:45;-18621.00;;;10.77;100.00
28606;BME280;46498;49.968;7.754;2023-08-06T20:04:47;-18619.00;;;10.72;100.00
28606;BME280;46498;49.968;7.754;2023-08-06T20:09:48;-18619.00;;;10.73;100.00
28606;BME280;46498;49.968;7.754;2023-08-06T20:14:49;-18618.00;;;10.69;100.00
28606;BME280;46498;49.968;7.754;2023-08-06T20:19:50;-18618.00;;;10.68;100.00
28606;BME280;46498;49.968;7.754;2023-08-06T20:24:51;-18618.00;;;10.68;100.00
28606;BME280;46498;49.968;7.754;2023-08-06T20:29:53;-18617.00;;;10.65;100.00
28606;BME280;46498;49.968;7.754;2023-08-06T20:34:54;-18617.00;;;10.64;100.00
28606;BME280;46498;49.968;7.754;2023-08-06T20:39:55;-18616.00;;;10.61;100.00
28606;BME280;46498;49.968;7.754;2023-08-06T20:44:56;-18618.00;;;10.67;100.00
28606;BME280;46498;49.968;7.754;2023-08-06T20:49:57;-18618.00;;;10.68;100.00
28606;BME280;46498;49.968;7.754;2023-08-06T20:54:58;-18616.00;;;10.60;100.00
28606;BME280;46498;49.968;7.754;2023-08-06T20:59:59;-18617.00;;;10.64;100.00
28606;BME280;46498;49.968;7.754;2023-08-06T21:05:00;-18616.00;;;10.62;100.00
28606;BME280;46498;49.968;7.754;2023-08-06T21:10:02;-18618.00;;;10.69;100.00
28606;BME280;46498;49.968;7.754;2023-08-06T21:15:03;-18617.00;;;10.63;100.00
28606;BME280;46498;49.968;7.754;2023-08-06T21:20:05;-18619.00;;;10.73;100.00
28606;BME280;46498;49.968;7.754;2023-08-06T21:25:07;-18616.00;;;10.61;100.00
28606;BME280;46498;49.968;7.754;2023-08-06T21:30:08;-18618.00;;;10.66;100.00
28606;BME280;46498;49.968;7.754;2023-08-06T21:35:13;-18616.00;;;10.61;100.00
28606;BME280;46498;49.968;7.754;2023-08-06T21:40:15;-18613.00;;;10.54;100.00
28606;BME280;46498;49.968;7.754;2023-08-06T21:45:16;-18615.00;;;10.59;100.00
28606;BME280;46498;49.968;7.754;2023-08-06T21:50:17;-18612.00;;;10.50;100.00
28606;BME280;46498;49.968;7.754;2023-08-06T21:55:18;-18611.00;;;10.47;100.00
28606;BME280;46498;49.968;7.754;2023-08-06T22:00:19;-18612.00;;;10.49;100.00
28606;BME280;46498;49.968;7.754;2023-08-06T22:05:20;-18610.00;;;10.42;100.00
28606;BME280;46498;49.968;7.754;2023-08-06T22:10:21;-18611.00;;;10.47;100.00
28606;BME280;46498;49.968;7.754;2023-08-06T22:15:22;-18609.00;;;10.39;100.00
28606;BME280;46498;49.968;7.754;2023-08-06T22:20:22;-18607.00;;;10.33;100.00
28606;BME280;46498;49.968;7.754;2023-08-06T22:25:32;-18609.00;;;10.39;100.00
28606;BME280;46498;49.968;7.754;2023-08-06T22:30:33;-18607.00;;;10.33;100.00
28606;BME280;46498;49.968;7.754;2023-08-06T22:35:34;-18607.00;;;10.35;100.00
28606;BME280;46498;49.968;7.754;2023-08-06T22:40:35;-18606.00;;;10.32;100.00
28606;BME280;46498;49.968;7.754;2023-08-06T22:45:36;-18606.00;;;10.30;100.00
28606;BME280;46498;49.968;7.754;2023-08-06T22:50:37;-18605.00;;;10.26;100.00
28606;BME280;46498;49.968;7.754;2023-08-06T22:55:38;-18606.00;;;10.30;100.00
28606;BME280;46498;49.968;7.754;2023-08-06T23:00:42;-18606.00;;;10.31;100.00
28606;BME280;46498;49.968;7.754;2023-08-06T23:05:43;-18607.00;;;10.32;100.00
28606;BME280;46498;49.968;7.754;2023-08-06T23:10:44;-18606.00;;;10.32;100.00
28606;BME280;46498;49.968;7.754;2023-08-06T23:15:45;-18606.00;;;10.31;100.00
28606;BME280;46498;49.968;7.754;2023-08-06T23:20:46;-18607.00;;;10.34;100.00
28606;BME280;46498;49.968;7.754;2023-08-06T23:25:47;-18607.00;;;10.33;100.00
28606;BME280;46498;49.968;7.754;2023-08-06T23:30:47;-18604.00;;;10.23;100.00
28606;BME280;46498;49.968;7.754;2023-08-06T23:35:51;-18605.00;;;10.27;100.00
28606;BME280;46498;49.968;7.754;2023-08-06T23:40:52;-18604.00;;;10.23;100.00
28606;BME280;46498;49.968;7.754;2023-08-06T23:45:53;-18603.00;;;10.21;100.00
28606;BME280;46498;49.968;7.754;2023-08-06T23:50:56;-18604.00;;;10.25;100.00
28606;BME280;46498;49.968;7.754;2023-08-06T23:55:57;-18604.00;;;10.23;100.00
